METAR Data
IDs: Format: Raw Decoded Include TAF

Data at: 0847 UTC 18 Nov 2018

PAOU 180805Z AUTO 29008KT 10SM FEW025 OVC033 06/04 A2941 RMK AO2 RAE03 P0000
PAOU 180743Z AUTO 27014KT 4SM -RA BR FEW006 BKN016 OVC023 06/05 A2941 RMK AO2 RAB37 P0000
PAOU 180728Z AUTO 26009KT 10SM FEW006 BKN010 OVC049 06/05 A2940 RMK AO2 CIG 009V014
PAOU 180718Z AUTO 25007KT 8SM SCT010 BKN019 OVC120 06/05 A2940 RMK AO2
PAOU 180703Z AUTO 25008KT 10SM BKN010 BKN025 OVC120 05/04 A2940 RMK AO2
PAOU 180656Z AUTO 24007KT 10SM SCT010 BKN026 OVC120 05/04 A2940 RMK AO2 RAB0559E54 SLP954 P0001 T00500044
PAOU 180652Z AUTO 23007KT 10SM -RA SCT010 BKN026 OVC120 05/04 A2939 RMK AO2 RAB0559 P0001
PAOU 180632Z AUTO 24009KT 10SM -RA SCT008 SCT028 OVC041 06/05 A2939 RMK AO2 RAB0559 P0001
PAOU 180623Z AUTO 24008KT 4SM -RA BR SCT011 BKN017 OVC041 06/05 A2939 RMK AO2 RAB0559 P0001
PAOU 180619Z AUTO 24010KT 3SM -RA BR FEW005 BKN009 OVC029 06/05 A2939 RMK AO2 RAB0559 CIG 007V013 P0001
PAOU 180607Z AUTO 25008KT 2SM -RA BR SCT005 BKN011 OVC018 05/05 A2939 RMK AO2 VIS 1 3/4V2 1/2 RAB0559 P0001
PAOU 180556Z AUTO 23008KT 8SM BKN005 BKN011 OVC020 05/04 A2938 RMK AO2 CIG 003V010 SLP950 60000 T00500044 10067 20044 51013
PAOU 180543Z AUTO 22009KT 10SM BKN005 OVC011 05/04 A2938 RMK AO2
PAOU 180539Z AUTO 21010KT 10SM SCT007 OVC011 05/04 A2938 RMK AO2
PAOU 180515Z AUTO 20008KT 10SM BKN011 BKN021 OVC046 04/04 A2937 RMK AO2
PAOU 180456Z AUTO 23009KT 10SM FEW009 SCT023 OVC050 06/05 A2937 RMK AO2 RAE21 SLP945 P0000 T00560050
PAOU 180453Z AUTO 23008KT 10SM FEW009 SCT033 OVC050 06/05 A2937 RMK AO2 RAE21 P0000
PAOU 180436Z AUTO 24008KT 10SM SCT011 BKN050 OVC120 05/04 A2936 RMK AO2 RAE21 P0000
PAOU 180414Z AUTO 24009KT 10SM -RA BKN011 BKN018 OVC050 06/04 A2935 RMK AO2 P0000
PAOU 180356Z AUTO 24010KT 10SM -RA SCT011 BKN018 OVC055 06/05 A2935 RMK AO2 RAB25 SLP937 P0000 T00560050
PAOU 180308Z AUTO 24010KT 10SM BKN016 BKN022 OVC027 06/05 A2933 RMK AO2
PAOU 180256Z AUTO 24009KT 10SM BKN014 BKN020 OVC027 06/05 A2933 RMK AO2 SLP933 60000 T00610050 53009
PAOU 180156Z AUTO 25010KT 10SM OVC010 06/05 A2932 RMK AO2 RAB01E27 CIG 006V012 SLP929 P0000 T00610050
PAOU 180132Z AUTO 28008KT 10SM SCT007 BKN010 OVC020 06/06 A2932 RMK AO2 RAB01E27 CIG 009V013 P0000
PAOU 180121Z AUTO 26009KT 4SM -RA BR BKN007 BKN012 OVC018 06/06 A2931 RMK AO2 RAB01 CIG 003V010 P0000
PAOU 180115Z AUTO 26009KT 1 1/4SM -RA BR BKN007 OVC012 06/06 A2931 RMK AO2 RAB01 CIG 004V009 P0000
PAOU 180108Z AUTO 27007KT 3/4SM -RA BR OVC010 06/06 A2931 RMK AO2 RAB01 CIG 004V014 P0000
PAOU 180103Z AUTO 26009KT 1 3/4SM -RA BR OVC010 06/06 A2931 RMK AO2 RAB01 CIG 008V014 P0000
PAOU 180056Z AUTO 27009KT 10SM OVC010 06/06 A2931 RMK AO2 CIG 008V012 SLP925 T00610056
PAOU 180036Z AUTO 27010KT 10SM BKN014 OVC020 06/06 A2931 RMK AO2
PAOU 180013Z AUTO 28011KT 10SM FEW008 OVC017 06/06 A2931 RMK AO2
PAOU 172356Z AUTO 27011KT 10SM BKN008 OVC019 06/06 A2930 RMK AO2 RAE42 CIG 006V012 SLP923 P0000 60014 T00610056 10061 20050 55000
PAOU 172320Z AUTO 22007KT 8SM -RA OVC006 06/06 A2930 RMK AO2 CIG 003V008 P0000
PAOU 172308Z AUTO 20005KT 2SM -RA BR BKN006 OVC010 06/05 A2930 RMK AO2 VIS 1 1/2V3 CIG 003V008 P0000
PAOU 172256Z AUTO 21006KT 3SM -RA BR BKN006 BKN012 OVC020 06/05 A2930 RMK AO2 CIG 004V009 SLP922 P0002 T00560050
PAOU 172254Z AUTO 21005KT 4SM -RA BR SCT006 BKN012 OVC020 06/05 A2930 RMK AO2 P0001
PAOU 172230Z AUTO 21007KT 10SM -RA FEW008 BKN029 OVC037 06/05 A2931 RMK AO2 P0001
PAOU 172156Z AUTO 22009KT 10SM -RA FEW007 SCT017 OVC046 05/04 A2931 RMK AO2 RAB17 SLP924 P0000 T00500044
PAOU 172056Z AUTO 22007KT 10SM FEW018 OVC030 05/04 A2931 RMK AO2 RAE50 SLP925 P0001 60012 T00500044 53002
PAOU 172022Z AUTO 23005KT 10SM -RA BKN018 OVC049 05/04 A2930 RMK AO2 P0001
PAOU 171956Z AUTO 21004KT 10SM -RA OVC047 05/04 A2930 RMK AO2 SLP922 P0004 T00500044
PAOU 171856Z AUTO 20004KT 6SM -RA BR SCT024 OVC034 05/04 A2930 RMK AO2 SLP922 P0007 T00500044
PAOU 171756Z AUTO 26003KT 9SM -RA FEW012 OVC034 06/05 A2930 RMK AO2 SLP922 P0007 60028 T00560050 10061 20050 56003
PAOU 171722Z AUTO 26004KT 9SM RA FEW006 SCT022 OVC034 05/05 A2930 RMK AO2 P0003
PAOU 171708Z AUTO 26004KT 7SM -RA FEW004 BKN020 OVC034 06/05 A2930 RMK AO2 P0001
PAOU 171656Z AUTO 27004KT 7SM -RA BKN004 OVC036 06/05 A2930 RMK AO2 CIG 003V009 SLP922 P0003 T00560050
PAOU 171556Z AUTO 22003KT 5SM RA BR OVC004 06/05 A2930 RMK AO2 SLP923 P0006 T00560050
PAOU 171542Z AUTO 00000KT 5SM -RA BR BKN004 OVC035 06/05 A2930 RMK AO2 P0004
PAOU 171532Z AUTO 00000KT 4SM RA BR SCT004 BKN035 OVC043 06/06 A2931 RMK AO2 P0004
PAOU 171505Z AUTO 14003KT 6SM -RA BR FEW011 SCT026 OVC037 06/06 A2931 RMK AO2 P0001
PAOU 171456Z AUTO 13003KT 7SM RA FEW009 BKN026 OVC035 06/06 A2931 RMK AO2 SLP925 P0003 60012 T00610056 56013
PAOU 171451Z AUTO 13003KT 7SM -RA FEW009 BKN026 OVC032 06/06 A2931 RMK AO2 P0003
PAOU 171444Z AUTO 12003KT 7SM -RA FEW009 BKN014 OVC032 06/06 A2932 RMK AO2 P0002
PAOU 171356Z AUTO 00000KT 6SM -RA BR FEW019 BKN026 OVC033 06/05 A2933 RMK AO2 SLP931 P0005 T00560050
PAOU 171305Z AUTO 11004KT 8SM -RA BKN026 OVC034 06/06 A2935 RMK AO2 P0001
PAOU 171256Z AUTO 10004KT 7SM -RA SCT024 BKN030 OVC046 06/05 A2935 RMK AO2 SLP938 P0004 T00560050
PAOU 171235Z AUTO 08004KT 7SM -RA SCT028 BKN038 OVC045 06/05 A2935 RMK AO2 P0003
PAOU 171221Z AUTO 11004KT 7SM -RA BKN028 OVC038 06/05 A2936 RMK AO2 P0002
PAOU 171156Z AUTO 13004KT 7SM RA SCT030 OVC042 06/05 A2937 RMK AO2 SLP944 P0001 60001 70001 T00560050 10056 20044 56019
PAOU 171056Z AUTO 10007KT 10SM -RA FEW023 BKN055 OVC070 06/04 A2939 RMK AO2 RAB53 SLP951 P0000 T00560044
PAOU 170956Z AUTO 09006KT 7SM FEW003 BKN100 OVC120 05/04 A2940 RMK AO2 SLP956 T00500044
PAOU 170942Z AUTO 10006KT 6SM BR FEW003 SCT019 BKN120 05/04 A2941 RMK AO2
PAOU 170934Z AUTO 10006KT 5SM BR SCT003 BKN019 BKN120 05/04 A2941 RMK AO2
PAOU 170915Z AUTO 11007KT 7SM SCT003 BKN075 05/04 A2942 RMK AO2
PAOU 170856Z AUTO 12006KT 7SM OVC075 05/05 A2942 RMK AO2 RAE05 SLP963 P0000 60000 T00500050 400720039 58009
PAOU 170829Z AUTO 11006KT 6SM BR FEW003 BKN080 05/04 A2943 RMK AO2 RAE05 P0000
PAOU 170822Z AUTO 11005KT 6SM BR BKN003 BKN075 04/04 A2943 RMK AO2 RAE05 P0000
PAOU 170815Z AUTO 10005KT 2 1/2SM BR BKN003 04/04 A2943 RMK AO2 RAE05 P0000
PAOU 170813Z AUTO 10005KT 1SM BR BKN003 05/04 A2943 RMK AO2 RAE05 P0000
PAOU 170803Z AUTO 11006KT 1/2SM -RA FG OVC003 04/04 A2943 RMK AO2 P0000
PAOU 170756Z AUTO 11006KT 3/4SM -RA BR OVC003 05/04 A2943 RMK AO2 RAB54 SLP967 P0000 T00500044
PAOU 170754Z AUTO 11006KT 3/4SM -RA BR OVC003 05/04 A2943 RMK AO2 RAB54 P0000
PAOU 170752Z AUTO 11005KT 1 1/2SM BR OVC003 05/04 A2943 RMK AO2
PAOU 170729Z AUTO 10007KT 6SM BR BKN003 BKN080 05/04 A2943 RMK AO2
PAOU 170708Z AUTO 09007KT 6SM BR FEW005 BKN080 05/04 A2944 RMK AO2
PAOU 170656Z AUTO 10007KT 6SM BR FEW005 BKN010 BKN080 05/04 A2944 RMK AO2 SLP971 T00500044
PAOU 170643Z AUTO 10006KT 7SM SCT005 OVC010 05/04 A2944 RMK AO2
PAOU 170556Z AUTO 11006KT 7SM OVC005 05/04 A2945 RMK AO2 SLP972 T00500044 10072 20050 57017
PAOU 170544Z AUTO 10006KT 7SM BKN005 05/04 A2945 RMK AO2
PAOU 170505Z AUTO 11006KT 8SM SCT007 06/04 A2946 RMK AO2
PAOU 170456Z AUTO 12006KT 8SM BKN009 06/04 A2946 RMK AO2 CIG 005V011 SLP977 T00560044
PAOU 170356Z AUTO 14006KT 10SM OVC009 06/05 A2948 RMK AO2 SLP984 T00610050
PAOU 170256Z AUTO 16006KT 10SM OVC009 07/05 A2950 RMK AO2 SLP989 T00670050 56012
PAOU 170156Z AUTO 00000KT 10SM OVC009 07/05 A2950 RMK AO2 SLP990 T00670050
PAOU 170056Z AUTO 22004KT 8SM OVC009 07/06 A2952 RMK AO2 CIG 007V012 SLP997 T00670056
PAOU 162356Z AUTO 24005KT 7SM OVC011 07/06 A2954 RMK AO2 SLP001 T00670056 10067 20044 56012
PAOU 162256Z AUTO 22005KT 7SM OVC011 06/06 A2955 RMK AO2 SLP005 T00610056
PAOU 162156Z AUTO 23006KT 9SM OVC011 06/06 A2956 RMK AO2 SLP010 T00610056
PAOU 162056Z AUTO 21007KT 6SM BR OVC011 06/05 A2957 RMK AO2 SLP014 T00560050 51000